Seymour Johnson Air Force Base
KGSB : now visible

Airfield :











YOU CAN JOIN US ON...

 
LOGIN :

Register | Disclaimer

   EN    FR    IT 

 









Legend :    VFR   Marginal VFR   IFR   Intensive IFR   Very Intensive IFR
Visi :
Ceiling :
>= 8 km
>= 3000ft
5 to 8 km
1000 to 3000 ft
1500m to 5 km
500 to 1000 ft
800 to 1500m
200 to 500 ft
< 800m
< 200 ft
Symbols :   Thunderstorms  Fog  Heavy snow  Heavy precipitations  Wind > 20 kt






- Airport Elevation : 109 ft


KGSB - Seymour Johnson Air Force Base

CURRENT METAR :
  • 221156Z AUTO 21009KT 10SM BKN045 OVC060 20/16 A2996 RMK AO2 SLP148 T01990163 10203 20182 56002 $

EXPIRED METARs :
  • 221056Z AUTO 20006KT 10SM OVC044 19/16 A2996 RMK AO2 SLP148 T01920158 $
  • 220956Z AUTO 20007KT 10SM FEW049 FEW055 18/15 A2996 RMK AO2 SLP148 T01840154 $

TAF TAF KGSB
Valid from the 22 at 12:00 until the 23 at 18:00 UTC


221200Z 2212/2318 24008KT 9999 BKN040 OVC060 QNH2996INS
TEMPO 2215/2218 26010G18KT 8000 -SHRA
BECMG 2219/2220 33015KT 9999 SCT050 SCT100 QNH2998INS
TEMPO 2310/2312 4800 BR SCT008
BECMG 2313/2314 34010KT 9999 SCT150 QNH3001INS TX25/2217Z TN13/2308Z
KZDC FIR / North America



MET'MAP, your aeronautical weather chart ! - Copyright ORBIFLY December 2007 - Disclaimer

ORBIFLY MET'MAP TEAM :

Programming & Development : Alexandra Zaïnal
Concept & original design : Baudouin d'Aumeries
Assistance for programming : Marc-Olivier Méhu
Technical & hardware support : Manuel Goepfert

Contact : metmap@orbifly.com




SOURCES & CREDITS :

   NOAA       Earth
Advisory